Time;durP1;ratioP1;P1;durP2;ratioP2;P2;SDS_P1;SDS_P2;PMS_P1;PMS_P2;Temp;Humidity;BMP_temperature;BMP_pressure;BME280_temperature;BME280_humidity;BME280_pressure;Samples;Min_cycle;Max_cycle;Signal;HPM_P1;HPM_P2
2023/06/17 00:00:43;;;;;;;42.20;27.10;;;;;;;13.79;100.00;101155.03;7395327;19;20396;-36
2023/06/17 00:03:13;;;;;;;48.93;28.40;;;;;;;13.82;100.00;101153.41;7367364;19;20403;-38
2023/06/17 00:05:44;;;;;;;51.43;28.07;;;;;;;13.84;100.00;101143.09;7393156;19;20497;-36
2023/06/17 00:08:13;;;;;;;44.57;27.60;;;;;;;13.73;100.00;101147.91;7370164;19;20769;-37
2023/06/17 00:10:43;;;;;;;82.27;44.10;;;;;;;13.80;100.00;101161.97;7393371;19;20398;-34
2023/06/17 00:13:18;;;;;;;45.67;26.70;;;;;;;13.94;100.00;101163.31;7369263;19;20772;-36
2023/06/17 00:15:50;;;;;;;54.40;32.07;;;;;;;14.01;100.00;101161.84;7392352;19;20986;-37
2023/06/17 00:18:22;;;;;;;49.30;26.13;;;;;;;13.97;100.00;101154.78;7369237;19;20407;-38
2023/06/17 00:20:53;;;;;;;47.90;26.83;;;;;;;13.88;100.00;101158.81;7393771;19;20382;-41
2023/06/17 00:23:23;;;;;;;46.87;27.87;;;;;;;13.99;100.00;101163.47;7369024;19;20774;-35
2023/06/17 00:25:53;;;;;;;51.10;26.13;;;;;;;14.02;100.00;101154.13;7393016;19;20434;-37
2023/06/17 00:28:25;;;;;;;49.30;25.87;;;;;;;14.01;100.00;101156.66;7367978;19;20426;-36
2023/06/17 00:30:55;;;;;;;55.97;28.50;;;;;;;14.04;100.00;101161.94;7393306;19;20396;-36
2023/06/17 00:33:24;;;;;;;49.10;26.00;;;;;;;13.98;100.00;101167.78;7370654;19;20464;-35
2023/06/17 00:35:54;;;;;;;48.90;28.50;;;;;;;14.01;100.00;101159.25;7392607;19;20435;-38
2023/06/17 00:38:24;;;;;;;51.13;26.30;;;;;;;13.91;100.00;101169.28;7368128;19;20410;-35
2023/06/17 00:40:54;;;;;;;50.17;26.30;;;;;;;13.91;100.00;101163.22;7392897;19;20452;-35
2023/06/17 00:43:26;;;;;;;49.40;25.90;;;;;;;13.82;100.00;101168.97;7365503;19;20618;-36
2023/06/17 00:45:55;;;;;;;49.90;25.30;;;;;;;13.84;100.00;101172.50;7392229;19;20503;-41
2023/06/17 00:48:25;;;;;;;49.90;26.00;;;;;;;13.91;100.00;101169.28;7367293;19;20531;-38
2023/06/17 00:51:01;;;;;;;48.07;25.57;;;;;;;13.87;100.00;101166.53;7393722;19;20400;-37
2023/06/17 00:53:31;;;;;;;44.97;25.07;;;;;;;13.86;100.00;101170.88;7368091;19;20417;-36
2023/06/17 00:56:01;;;;;;;51.67;26.00;;;;;;;13.90;100.00;101177.03;7391755;19;20419;-37
2023/06/17 00:58:33;;;;;;;60.47;25.83;;;;;;;13.93;100.00;101173.66;7367149;19;20911;-39
2023/06/17 01:01:03;;;;;;;52.33;27.93;;;;;;;13.93;100.00;101171.06;7392475;19;20427;-40
2023/06/17 01:03:34;;;;;;;43.53;23.57;;;;;;;13.80;100.00;101170.66;7370788;19;20503;-36
2023/06/17 01:06:08;;;;;;;45.40;25.80;;;;;;;13.76;100.00;101176.53;7391878;19;20429;-37
2023/06/17 01:08:44;;;;;;;48.80;26.23;;;;;;;13.72;100.00;101183.34;7366961;19;20419;-38
2023/06/17 01:11:16;;;;;;;44.23;23.53;;;;;;;13.86;100.00;101186.41;7398292;19;20432;-39
2023/06/17 01:13:51;;;;;;;41.70;24.67;;;;;;;13.99;100.00;101179.03;7370158;19;20847;-40
2023/06/17 01:16:20;;;;;;;45.53;24.40;;;;;;;13.83;100.00;101177.63;7367621;19;20501;-37
2023/06/17 01:18:52;;;;;;;48.17;24.57;;;;;;;14.02;100.00;101177.47;7391324;19;20922;-41
2023/06/17 01:21:23;;;;;;;45.70;24.57;;;;;;;13.89;100.00;101170.94;7367964;19;20749;-37
2023/06/17 01:23:53;;;;;;;47.50;25.70;;;;;;;13.99;100.00;101184.22;7389588;19;20412;-35
2023/06/17 01:26:28;;;;;;;54.40;26.40;;;;;;;13.85;100.00;101173.41;7367917;19;20498;-39
2023/06/17 01:28:59;;;;;;;47.53;25.67;;;;;;;13.94;100.00;101178.03;7390082;19;20394;-38
2023/06/17 01:31:30;;;;;;;51.47;25.20;;;;;;;13.86;100.00;101181.25;7366735;19;20394;-39
2023/06/17 01:34:02;;;;;;;49.50;25.33;;;;;;;13.83;100.00;101181.13;7388079;19;20398;-35
2023/06/17 01:36:32;;;;;;;53.67;25.43;;;;;;;13.77;100.00;101176.59;7365936;19;20442;-35
2023/06/17 01:39:04;;;;;;;47.73;25.27;;;;;;;13.73;100.00;101173.81;7390294;19;20454;-39
2023/06/17 01:41:41;;;;;;;51.67;25.57;;;;;;;13.70;100.00;101178.91;7367149;19;20413;-39
2023/06/17 01:44:11;;;;;;;50.83;26.03;;;;;;;13.89;100.00;101185.63;7388713;19;20383;-38
2023/06/17 01:46:41;;;;;;;48.77;26.20;;;;;;;13.82;100.00;101174.16;7367077;19;20404;-38
2023/06/17 01:49:11;;;;;;;52.43;26.70;;;;;;;13.78;100.00;101174.88;7389844;19;20916;-34
2023/06/17 01:51:41;;;;;;;64.87;28.50;;;;;;;13.78;100.00;101174.88;7366887;19;20884;-40
2023/06/17 01:54:10;;;;;;;46.20;25.30;;;;;;;13.79;100.00;101170.59;7389494;19;20960;-37
2023/06/17 01:56:43;;;;;;;50.90;27.30;;;;;;;13.79;100.00;101174.03;7368655;19;20461;-39
2023/06/17 01:59:12;;;;;;;44.63;25.07;;;;;;;13.73;100.00;101173.81;7392443;19;20408;-38
2023/06/17 02:01:42;;;;;;;51.57;26.67;;;;;;;13.70;100.00;101176.31;7367325;19;20481;-36
2023/06/17 02:04:11;;;;;;;50.30;25.70;;;;;;;13.73;100.00;101176.41;7389856;19;20384;-38
2023/06/17 02:06:41;;;;;;;45.73;25.40;;;;;;;13.76;100.00;101179.13;7367872;19;20442;-39
2023/06/17 02:09:11;;;;;;;47.43;24.87;;;;;;;13.81;100.00;101174.09;7389598;19;20483;-35
2023/06/17 02:11:43;;;;;;;49.70;27.53;;;;;;;13.88;100.00;101176.06;7365694;19;20399;-35
2023/06/17 02:14:13;;;;;;;50.90;26.60;;;;;;;13.78;100.00;101177.47;7389894;19;20426;-41
2023/06/17 02:16:46;;;;;;;52.70;26.20;;;;;;;13.85;100.00;101179.44;7365752;19;20539;-40
2023/06/17 02:19:17;;;;;;;55.27;24.63;;;;;;;13.80;100.00;101190.50;7389609;19;20471;-37
2023/06/17 02:21:46;;;;;;;44.87;26.50;;;;;;;13.76;100.00;101189.50;7365746;19;20858;-41
2023/06/17 02:24:16;;;;;;;48.83;26.80;;;;;;;13.82;100.00;101188.84;7388858;19;20440;-37
2023/06/17 02:26:49;;;;;;;48.07;25.87;;;;;;;13.83;100.00;101181.13;7367884;19;20419;-38
2023/06/17 02:29:19;;;;;;;50.77;26.87;;;;;;;13.76;100.00;101185.19;7388194;19;20396;-39
2023/06/17 02:31:48;;;;;;;56.03;27.00;;;;;;;13.68;100.00;101191.81;7364700;19;20405;-36
2023/06/17 02:34:19;;;;;;;57.90;28.00;;;;;;;13.73;100.00;101190.28;7387682;19;20389;-39
2023/06/17 02:36:49;;;;;;;52.47;28.03;;;;;;;13.72;100.00;101192.81;7366213;19;20899;-38
2023/06/17 02:39:19;;;;;;;59.00;27.93;;;;;;;13.70;100.00;101194.47;7388192;19;20395;-38
2023/06/17 02:41:51;;;;;;;50.80;28.03;;;;;;;13.75;100.00;101190.34;7367139;19;20412;-37
2023/06/17 02:44:21;;;;;;;46.03;26.93;;;;;;;13.81;100.00;101194.84;7387594;19;20412;-37
2023/06/17 02:46:50;;;;;;;45.30;26.60;;;;;;;13.84;100.00;101194.97;7367749;19;20403;-39
2023/06/17 02:49:20;;;;;;;53.93;28.90;;;;;;;13.93;100.00;101192.69;7394762;19;20395;-38
2023/06/17 02:51:51;;;;;;;66.17;28.37;;;;;;;13.76;100.00;101187.78;7374455;19;20812;-38
2023/06/17 02:54:20;;;;;;;49.80;27.87;;;;;;;13.61;100.00;101195.91;7394001;19;21266;-38
2023/06/17 02:56:53;;;;;;;47.43;25.13;;;;;;;13.62;100.00;101200.28;7372004;19;20470;-36
2023/06/17 02:59:22;;;;;;;54.40;27.17;;;;;;;13.60;100.00;101199.31;7394830;19;20395;-38
2023/06/17 03:01:52;;;;;;;45.47;24.67;;;;;;;13.73;100.00;101192.88;7371594;19;20423;-37
2023/06/17 03:04:23;;;;;;;46.30;26.00;;;;;;;13.71;100.00;101185.88;7398607;19;20427;-39
2023/06/17 03:06:53;;;;;;;54.67;26.40;;;;;;;13.74;100.00;101186.00;7371660;19;20522;-39
2023/06/17 03:09:23;;;;;;;55.57;26.90;;;;;;;13.75;100.00;101190.34;7397287;19;20763;-38
2023/06/17 03:11:55;;;;;;;56.77;27.07;;;;;;;13.63;100.00;101183.00;7371115;19;20848;-38
2023/06/17 03:14:25;;;;;;;61.20;28.90;;;;;;;13.77;100.00;101186.97;7393331;19;20396;-37
2023/06/17 03:16:57;;;;;;;52.90;27.37;;;;;;;13.77;100.00;101180.91;7368765;19;20399;-37
2023/06/17 03:19:27;;;;;;;55.70;28.37;;;;;;;13.94;100.00;101185.81;7394350;19;20399;-37
2023/06/17 03:21:57;;;;;;;49.07;26.90;;;;;;;13.87;100.00;101183.00;7371138;19;20407;-39
2023/06/17 03:24:27;;;;;;;51.80;26.93;;;;;;;13.81;100.00;101187.06;7393130;19;20396;-40
2023/06/17 03:26:59;;;;;;;49.23;26.00;;;;;;;13.80;100.00;101195.69;7370668;19;20470;-38
2023/06/17 03:29:30;;;;;;;45.03;26.20;;;;;;;13.78;100.00;101193.03;7393927;19;20406;-40
2023/06/17 03:32:02;;;;;;;47.10;26.73;;;;;;;13.77;100.00;101194.75;7371082;19;20481;-39
2023/06/17 03:34:32;;;;;;;53.07;25.30;;;;;;;13.72;100.00;101198.91;7393008;19;20417;-40
2023/06/17 03:37:02;;;;;;;47.40;25.37;;;;;;;13.76;100.00;101200.75;7372455;19;21002;-36
2023/06/17 03:39:32;;;;;;;45.73;25.97;;;;;;;13.66;100.00;101195.19;7394298;19;20391;-37
2023/06/17 03:42:04;;;;;;;71.70;39.33;;;;;;;13.78;100.00;101190.44;7369915;19;20484;-39
2023/06/17 03:44:34;;;;;;;54.63;29.40;;;;;;;13.84;100.00;101182.88;7392555;19;20395;-34
2023/06/17 03:47:03;;;;;;;55.87;30.50;;;;;;;13.81;100.00;101181.88;7370301;19;20411;-36
2023/06/17 03:49:33;;;;;;;51.60;27.00;;;;;;;13.79;100.00;101183.56;7395974;19;20401;-37
2023/06/17 03:52:02;;;;;;;49.63;29.03;;;;;;;13.85;100.00;101188.97;7370506;19;20406;-39
2023/06/17 03:54:32;;;;;;;53.00;29.80;;;;;;;13.75;100.00;101188.63;7394691;19;20409;-34
2023/06/17 03:57:05;;;;;;;53.27;28.47;;;;;;;13.80;100.00;101190.50;7369045;19;20475;-40
2023/06/17 03:59:35;;;;;;;49.67;29.60;;;;;;;13.75;100.00;101195.53;7396944;19;20474;-39
2023/06/17 04:02:05;;;;;;;55.67;32.37;;;;;;;13.87;100.00;101197.66;7372422;19;20403;-38
2023/06/17 04:04:35;;;;;;;58.33;32.67;;;;;;;13.88;100.00;101199.41;7394264;19;20959;-34
2023/06/17 04:07:05;;;;;;;65.30;31.90;;;;;;;13.94;100.00;101196.19;7369591;19;20429;-39
2023/06/17 04:09:35;;;;;;;59.83;31.03;;;;;;;13.88;100.00;101194.22;7395379;19;20391;-39
2023/06/17 04:12:08;;;;;;;62.93;31.00;;;;;;;13.89;100.00;101191.69;7370009;19;20416;-37
2023/06/17 04:14:37;;;;;;;53.90;31.00;;;;;;;13.95;100.00;101200.53;7392302;19;20503;-34
2023/06/17 04:17:07;;;;;;;56.33;31.20;;;;;;;13.95;100.00;101197.94;7369948;19;20399;-37
2023/06/17 04:19:38;;;;;;;52.20;30.67;;;;;;;13.87;100.00;101203.75;7391883;19;20941;-36
2023/06/17 04:22:07;;;;;;;52.53;30.60;;;;;;;13.78;100.00;101200.81;7369136;19;20403;-39
2023/06/17 04:24:38;;;;;;;55.70;30.00;;;;;;;13.98;100.00;101204.13;7390410;19;20414;-36
2023/06/17 04:27:10;;;;;;;53.97;30.13;;;;;;;14.07;100.00;101190.59;7368764;19;21021;-39
2023/06/17 04:29:40;;;;;;;57.30;31.30;;;;;;;14.15;100.00;101193.44;7394259;19;20486;-37
2023/06/17 04:32:15;;;;;;;49.10;28.90;;;;;;;14.21;100.00;101193.66;7367850;19;20792;-39
2023/06/17 04:34:47;;;;;;;49.17;28.23;;;;;;;14.15;100.00;101190.84;7391348;19;20403;-39
2023/06/17 04:37:18;;;;;;;55.90;28.93;;;;;;;14.18;100.00;101209.09;7370051;19;20426;-41
2023/06/17 04:39:48;;;;;;;53.37;28.93;;;;;;;14.21;100.00;101209.22;7392010;19;20400;-36
2023/06/17 04:42:20;;;;;;;52.07;30.67;;;;;;;14.21;100.00;101222.19;7370061;19;20467;-35
2023/06/17 04:44:51;;;;;;;47.43;27.90;;;;;;;14.14;100.00;101228.88;7390527;19;20415;-37
2023/06/17 04:47:20;;;;;;;52.87;26.47;;;;;;;14.18;100.00;101233.34;7368637;19;20406;-37
2023/06/17 04:49:51;;;;;;;51.10;27.83;;;;;;;14.10;100.00;101231.31;7393513;19;20404;-37
2023/06/17 04:52:24;;;;;;;47.70;27.77;;;;;;;14.10;100.00;101247.75;7368031;19;20850;-37
2023/06/17 04:54:54;;;;;;;47.43;25.60;;;;;;;14.08;100.00;101244.22;7392018;19;20435;-40
2023/06/17 04:57:26;;;;;;;50.27;27.73;;;;;;;14.06;100.00;101239.81;7368429;19;20471;-39
2023/06/17 04:59:56;;;;;;;46.13;27.20;;;;;;;14.00;100.00;101241.34;7392091;19;20387;-36
2023/06/17 05:02:25;;;;;;;60.87;31.27;;;;;;;14.15;100.00;101240.16;7367255;19;20406;-41
2023/06/17 05:04:55;;;;;;;66.07;34.37;;;;;;;14.18;100.00;101229.88;7392059;19;20425;-37
2023/06/17 05:07:27;;;;;;;45.57;27.47;;;;;;;14.25;100.00;101230.97;7367596;19;20490;-35
2023/06/17 05:09:57;;;;;;;48.43;28.20;;;;;;;14.21;100.00;101223.91;7390366;19;20398;-40
2023/06/17 05:12:29;;;;;;;52.87;27.83;;;;;;;14.27;100.00;101227.59;7367885;19;20417;-36
2023/06/17 05:14:59;;;;;;;43.87;25.70;;;;;;;14.41;100.00;101227.19;7390889;19;20499;-38
2023/06/17 05:17:28;;;;;;;57.53;29.80;;;;;;;14.48;100.00;101241.22;7367892;19;20406;-40
2023/06/17 05:19:58;;;;;;;47.40;27.63;;;;;;;14.42;100.00;101239.31;7391868;19;20403;-39
2023/06/17 05:22:27;;;;;;;44.40;27.20;;;;;;;14.48;100.00;101251.63;7367018;19;20478;-36
2023/06/17 05:24:57;;;;;;;54.13;28.10;;;;;;;14.45;100.00;101252.38;7389960;19;20423;-37
2023/06/17 05:27:29;;;;;;;45.50;28.57;;;;;;;14.47;100.00;101257.63;7367216;19;20406;-40
2023/06/17 05:29:59;;;;;;;47.10;27.77;;;;;;;14.49;100.00;101267.25;7391404;19;20393;-35
2023/06/17 05:32:29;;;;;;;42.10;27.53;;;;;;;14.42;100.00;101271.34;7366092;19;20431;-39
2023/06/17 05:34:58;;;;;;;49.13;29.80;;;;;;;14.56;100.00;101273.53;7390085;19;20431;-35
2023/06/17 05:37:28;;;;;;;51.63;27.93;;;;;;;14.50;100.00;101274.19;7365015;19;20446;-37
2023/06/17 05:39:57;;;;;;;53.80;29.13;;;;;;;14.53;100.00;101284.72;7392351;19;20507;-36
2023/06/17 05:42:30;;;;;;;324.03;229.43;;;;;;;14.59;100.00;101278.81;7368316;19;20414;-37
2023/06/17 05:45:00;;;;;;;48.03;29.00;;;;;;;14.76;100.00;101282.00;7389410;19;20426;-38
2023/06/17 05:47:29;;;;;;;44.97;27.60;;;;;;;14.77;100.00;101273.38;7366491;19;20818;-37
2023/06/17 05:49:59;;;;;;;60.83;32.50;;;;;;;14.87;100.00;101274.56;7390462;19;21011;-35
2023/06/17 05:52:28;;;;;;;54.13;28.57;;;;;;;14.92;100.00;101283.38;7366092;19;20392;-37
2023/06/17 05:54:58;;;;;;;56.03;31.13;;;;;;;14.92;100.00;101278.19;7388895;19;20496;-38
2023/06/17 05:57:30;;;;;;;50.77;28.67;;;;;;;15.04;100.00;101284.63;7365682;19;20399;-40
2023/06/17 06:00:00;;;;;;;54.57;28.80;;;;;;;15.03;100.00;101295.84;7391172;19;20968;-37
2023/06/17 06:02:29;;;;;;;55.50;30.23;;;;;;;15.02;100.00;101296.69;7364836;19;20399;-37
2023/06/17 06:04:59;;;;;;;49.13;28.27;;;;;;;15.05;100.00;101301.97;7393206;19;20439;-38
2023/06/17 06:07:29;;;;;;;55.73;29.50;;;;;;;15.11;100.00;101310.84;7364635;19;20475;-37
2023/06/17 06:09:58;;;;;;;57.73;29.53;;;;;;;15.20;100.00;101320.66;7390383;19;20396;-38
2023/06/17 06:12:30;;;;;;;58.03;31.20;;;;;;;15.04;100.00;101314.09;7366237;19;20418;-35
2023/06/17 06:15:00;;;;;;;62.97;32.77;;;;;;;14.90;100.00;101316.25;7388735;19;20977;-35
2023/06/17 06:17:29;;;;;;;60.80;32.00;;;;;;;15.03;100.00;101319.25;7365340;19;20941;-41
2023/06/17 06:20:00;;;;;;;62.07;31.53;;;;;;;15.04;100.00;101318.41;7389093;19;20488;-38
2023/06/17 06:22:29;;;;;;;58.37;30.17;;;;;;;15.10;100.00;101319.50;7364421;19;20399;-39
2023/06/17 06:24:59;;;;;;;86.53;44.90;;;;;;;15.21;100.00;101311.13;7388889;19;20894;-39
2023/06/17 06:27:31;;;;;;;58.40;31.07;;;;;;;15.22;100.00;101318.09;7365662;19;20517;-42
2023/06/17 06:30:00;;;;;;;52.40;30.63;;;;;;;15.09;100.00;101309.03;7393321;19;20479;-38
2023/06/17 06:32:30;;;;;;;69.03;36.83;;;;;;;15.12;100.00;101314.31;7366157;19;20455;-39
2023/06/17 06:35:00;;;;;;;67.50;37.57;;;;;;;15.06;100.00;101316.72;7391948;19;20443;-40
2023/06/17 06:37:30;;;;;;;57.43;29.87;;;;;;;15.02;100.00;101314.88;7366271;19;20506;-37
2023/06/17 06:39:59;;;;;;;51.37;27.07;;;;;;;15.23;100.00;101320.75;7394876;19;20414;-37
2023/06/17 06:42:32;;;;;;;43.57;27.50;;;;;;;15.38;100.00;101315.16;7367031;19;20419;-36
2023/06/17 06:45:01;;;;;;;51.90;29.23;;;;;;;15.33;100.00;101323.66;7392922;19;20852;-40
2023/06/17 06:47:31;;;;;;;64.30;34.27;;;;;;;15.34;100.00;101322.81;7366753;19;20444;-39
2023/06/17 06:50:01;;;;;;;51.40;30.87;;;;;;;15.30;100.00;101331.34;7392705;19;20784;-37
2023/06/17 06:52:30;;;;;;;54.20;30.10;;;;;;;15.31;100.00;101336.59;7364714;19;20945;-40
2023/06/17 06:55:00;;;;;;;59.07;30.33;;;;;;;15.41;100.00;101340.38;7391301;19;20450;-40
2023/06/17 06:57:32;;;;;;;52.00;28.27;;;;;;;15.57;100.00;101335.63;7366247;19;20415;-37
2023/06/17 07:00:08;;;;;;;122.87;60.47;;;;;;;15.46;100.00;101336.19;7392818;19;20407;-37
2023/06/17 07:02:38;;;;;;;51.40;29.20;;;;;;;15.53;100.00;101339.84;7365747;19;20852;-40
2023/06/17 07:05:08;;;;;;;61.53;33.70;;;;;;;15.61;100.00;101334.88;7391438;19;20439;-37
2023/06/17 07:07:38;;;;;;;49.47;29.10;;;;;;;15.79;100.00;101344.94;7366088;19;20416;-42
2023/06/17 07:10:09;;;;;;;57.03;28.43;;;;;;;15.81;100.00;101351.09;7392825;19;20412;-42
2023/06/17 07:12:43;;;;;;;52.53;32.20;;;;;;;15.80;100.00;101352.81;7366113;19;21047;-40
2023/06/17 07:15:14;;;;;;;54.20;31.57;;;;;;;15.84;100.00;101350.31;7391806;19;20459;-40
2023/06/17 07:17:43;;;;;;;56.00;30.80;;;;;;;16.05;100.00;101350.94;7366254;19;20435;-39
2023/06/17 07:20:14;;;;;;;59.40;33.40;;;;;;;16.03;100.00;101351.75;7392475;19;20418;-40
2023/06/17 07:22:43;;;;;;;69.17;38.53;;;;;;;16.04;100.00;101354.41;7364366;19;20453;-39
2023/06/17 07:25:13;;;;;;;69.57;35.27;;;;;;;16.01;100.00;101359.50;7391208;19;20439;-39
2023/06/17 07:27:45;;;;;;;49.23;29.97;;;;;;;15.88;100.00;101362.53;7364859;19;20518;-38
2023/06/17 07:30:15;;;;;;;52.50;29.63;;;;;;;16.06;100.00;101360.50;7392064;19;20479;-39
2023/06/17 07:32:45;;;;;;;112.63;58.47;;;;;;;16.10;100.00;101365.81;7363269;19;20558;-43
2023/06/17 07:35:15;;;;;;;57.03;34.87;;;;;;;16.16;100.00;101368.59;7397759;19;20447;-38
2023/06/17 07:37:44;;;;;;;52.23;29.60;;;;;;;16.38;100.00;101371.78;7372612;19;20447;-39
2023/06/17 07:40:14;;;;;;;56.10;31.57;;;;;;;16.39;100.00;101371.84;7397405;19;20415;-38
2023/06/17 07:42:47;;;;;;;64.67;37.17;;;;;;;16.39;100.00;101371.84;7372625;19;20453;-40
2023/06/17 07:45:17;;;;;;;50.67;28.90;;;;;;;16.30;100.00;101367.25;7397606;19;20427;-39
2023/06/17 07:47:47;;;;;;;139.37;62.10;;;;;;;16.32;100.00;101370.78;7371775;19;20451;-40
2023/06/17 07:50:16;;;;;;;49.87;28.30;;;;;;;16.45;100.00;101361.59;7398727;19;20418;-40
2023/06/17 07:52:46;;;;;;;63.07;34.47;;;;;;;16.56;100.00;101359.28;7369846;19;20446;-42
2023/06/17 07:55:16;;;;;;;49.70;28.80;;;;;;;16.54;100.00;101360.06;7398589;19;20450;-39
2023/06/17 07:57:48;;;;;;;53.30;27.37;;;;;;;16.57;100.00;101354.97;7372630;19;20859;-37
2023/06/17 08:00:19;;;;;;;44.47;25.83;;;;;;;16.63;100.00;101360.34;7396439;19;20407;-33
2023/06/17 08:02:52;;;;;;;78.93;43.23;;;;;;;16.67;100.00;101359.53;7371331;19;20435;-35
2023/06/17 08:05:21;;;;;;;75.67;41.97;;;;;;;16.75;100.00;101364.97;7395969;19;21002;-37
2023/06/17 08:07:52;;;;;;;41.80;25.77;;;;;;;16.94;100.00;101360.22;7372386;19;20427;-35
2023/06/17 08:10:21;;;;;;;45.37;27.20;;;;;;;17.04;100.00;101357.06;7396045;19;20440;-31
2023/06/17 08:12:54;;;;;;;97.17;47.73;;;;;;;17.11;100.00;101348.53;7371595;19;20871;-35
2023/06/17 08:15:23;;;;;;;78.20;43.30;;;;;;;17.27;100.00;101360.22;7395922;19;20467;-36
2023/06/17 08:17:53;;;;;;;47.80;28.70;;;;;;;17.04;100.00;101357.06;7372121;19;20419;-36
2023/06/17 08:20:23;;;;;;;48.40;29.50;;;;;;;17.13;100.00;101354.66;7395689;19;20806;-39
2023/06/17 08:22:53;;;;;;;49.70;30.70;;;;;;;17.32;100.00;101349.88;7371771;19;20426;-38
2023/06/17 08:25:23;;;;;;;49.47;30.27;;;;;;;17.48;100.00;101348.50;7394215;19;20881;-35
2023/06/17 08:27:55;;;;;;;34.57;22.13;;;;;;;17.40;100.00;101350.06;7371524;19;20832;-34
2023/06/17 08:30:25;;;;;;;47.93;24.87;;;;;;;17.57;100.00;101347.81;7396005;19;20415;-37
2023/06/17 08:32:56;;;;;;;32.37;20.97;;;;;;;17.64;100.00;101357.53;7370976;19;20435;-35
2023/06/17 08:35:26;;;;;;;37.40;22.33;;;;;;;17.59;100.00;101361.78;7394889;19;20859;-33
2023/06/17 08:37:55;;;;;;;34.60;23.60;;;;;;;17.22;100.00;101360.94;7371241;19;20423;-34
2023/06/17 08:40:25;;;;;;;60.23;31.13;;;;;;;17.22;100.00;101351.38;7395752;19;20399;-37
2023/06/17 08:43:02;;;;;;;61.57;31.53;;;;;;;17.53;100.00;101361.63;7370900;19;20962;-34
2023/06/17 08:45:32;;;;;;;37.30;21.30;;;;;;;17.67;100.00;101357.63;7394739;19;21030;-33
2023/06/17 08:48:02;;;;;;;35.13;19.53;;;;;;;17.80;100.00;101360.50;7371398;19;20966;-33
2023/06/17 08:50:33;;;;;;;42.03;25.00;;;;;;;17.78;100.00;101354.34;7397075;19;20431;-38
2023/06/17 08:53:03;;;;;;;38.23;23.97;;;;;;;17.82;100.00;101348.34;7369376;19;20836;-36
2023/06/17 08:55:33;;;;;;;39.93;25.17;;;;;;;17.85;100.00;101352.75;7395040;19;20439;-37
2023/06/17 08:58:05;;;;;;;34.90;21.37;;;;;;;17.68;100.00;101351.56;7370907;19;20879;-35
2023/06/17 09:00:35;;;;;;;43.73;23.07;;;;;;;17.91;100.00;101352.91;7395107;19;20418;-37
2023/06/17 09:03:07;;;;;;;39.80;22.57;;;;;;;18.40;100.00;101347.78;7370467;19;20423;-35
2023/06/17 09:05:37;;;;;;;40.87;25.33;;;;;;;18.32;100.00;101349.38;7394871;19;20458;-37
2023/06/17 09:08:07;;;;;;;42.03;22.90;;;;;;;18.39;100.00;101350.34;7371246;19;20488;-39
2023/06/17 09:10:46;;;;;;;34.20;21.60;;;;;;;18.29;100.00;101351.91;7394746;19;20424;-37
2023/06/17 09:13:18;;;;;;;41.93;24.20;;;;;;;18.37;100.00;101349.47;7371013;19;20451;-35
2023/06/17 09:15:48;;;;;;;36.27;21.57;;;;;;;18.36;100.00;101340.75;7395548;19;20455;-37
2023/06/17 09:18:21;;;;;;;32.13;21.40;;;;;;;18.80;100.00;101354.56;7369773;19;20866;-39
2023/06/17 09:20:55;;;;;;;35.67;21.37;;;;;;;19.11;100.00;101361.22;7395093;19;20415;-36
2023/06/17 09:23:25;;;;;;;33.60;20.77;;;;;;;19.34;100.00;101365.06;7369874;19;20451;-37
2023/06/17 09:26:02;;;;;;;30.27;18.50;;;;;;;19.16;100.00;101370.03;7395321;19;20872;-38
2023/06/17 09:28:34;;;;;;;26.83;17.10;;;;;;;19.15;100.00;101362.16;7370091;19;20986;-33
2023/06/17 09:31:06;;;;;;;35.53;18.90;;;;;;;19.37;100.00;101360.75;7395688;19;20462;-32
2023/06/17 09:33:36;;;;;;;29.47;17.73;;;;;;;19.23;100.00;101371.00;7368969;19;20518;-33
2023/06/17 09:36:08;;;;;;;101.47;50.47;;;;;;;19.33;100.00;101373.78;7394297;19;20455;-34
2023/06/17 09:38:39;;;;;;;28.33;17.80;;;;;;;19.30;100.00;101367.63;7369664;19;20435;-37
2023/06/17 09:41:09;;;;;;;79.40;41.43;;;;;;;19.37;100.00;101362.47;7394893;19;20931;-36
2023/06/17 09:43:41;;;;;;;30.00;17.77;;;;;;;19.60;100.00;101367.19;7369599;19;20462;-33
2023/06/17 09:46:13;;;;;;;26.77;16.87;;;;;;;19.60;100.00;101370.69;7394212;19;20482;-38
2023/06/17 09:48:47;;;;;;;31.30;18.10;;;;;;;19.55;100.00;101364.50;7371723;19;20982;-34
2023/06/17 09:51:21;;;;;;;30.10;16.40;;;;;;;19.32;100.00;101372.88;7394750;19;20487;-33
2023/06/17 09:53:52;;;;;;;24.60;14.57;;;;;;;19.73;100.00;101361.25;7371441;19;20454;-35
2023/06/17 09:56:23;;;;;;;28.43;16.37;;;;;;;19.85;100.00;101360.53;7367765;19;20451;-34
2023/06/17 09:58:56;;;;;;;26.57;16.30;;;;;;;20.22;100.00;101368.00;7392298;19;20416;-34
2023/06/17 10:01:30;;;;;;;21.87;14.00;;;;;;;20.48;100.00;101364.78;7368032;19;20403;-32
2023/06/17 10:04:00;;;;;;;86.63;42.17;;;;;;;20.32;100.00;101377.72;7391182;19;20993;-35
2023/06/17 10:06:32;;;;;;;33.47;19.33;;;;;;;20.01;100.00;101379.97;7369555;19;20458;-35
2023/06/17 10:09:02;;;;;;;23.30;14.40;;;;;;;20.49;100.00;101366.53;7391714;19;20962;-37
2023/06/17 10:11:32;;;;;;;28.27;16.73;;;;;;;20.45;100.00;101406.69;7368878;19;20487;-35
2023/06/17 10:14:09;;;;;;;20.60;13.10;;;;;;;20.63;100.00;101395.50;7391725;19;20419;-34
2023/06/17 10:16:43;;;;;;;21.37;13.00;;;;;;;20.56;100.00;101391.91;7368121;19;20391;-35
2023/06/17 10:19:16;;;;;;;57.57;30.67;;;;;;;20.73;100.00;101388.59;7393158;19;20430;-36
2023/06/17 10:21:49;;;;;;;19.30;12.27;;;;;;;21.11;100.00;101387.19;7367898;19;20433;-38
2023/06/17 10:24:19;;;;;;;78.00;38.27;;;;;;;21.12;100.00;101386.34;7389630;19;20420;-34
2023/06/17 10:26:52;;;;;;;23.60;14.73;;;;;;;21.08;100.00;101390.69;7367887;19;20404;-33
2023/06/17 10:29:24;;;;;;;27.30;15.93;;;;;;;20.93;100.00;101395.81;7390779;19;20408;-33
2023/06/17 10:31:54;;;;;;;23.97;12.97;;;;;;;20.67;100.00;101391.16;7368726;19;21167;-32
2023/06/17 10:34:24;;;;;;;19.47;10.20;;;;;;;20.83;100.00;101386.94;7389769;19;20418;-39
2023/06/17 10:37:01;;;;;;;62.23;33.00;;;;;;;21.24;100.00;101385.56;7367353;19;20471;-32
2023/06/17 10:39:30;;;;;;;19.90;11.83;;;;;;;21.21;100.00;101398.66;7390954;19;20754;-38
2023/06/17 10:42:02;;;;;;;15.17;10.07;;;;;;;21.05;100.00;101401.16;7367384;19;20407;-34
2023/06/17 10:44:46;;;;;;;16.13;10.30;;;;;;;21.09;100.00;101405.56;7389072;19;20551;-38
2023/06/17 10:47:21;;;;;;;16.33;10.87;;;;;;;21.28;100.00;101410.97;7368434;19;20419;-31
2023/06/17 10:49:51;;;;;;;15.73;10.00;;;;;;;21.26;100.00;101402.19;7391466;19;20424;-36
2023/06/17 10:52:21;;;;;;;26.80;14.17;;;;;;;21.45;100.00;101390.94;7365784;19;20461;-38
2023/06/17 10:54:55;;;;;;;13.93;9.47;;;;;;;21.92;100.00;101388.63;7390421;19;20510;-37
2023/06/17 10:57:33;;;;;;;17.13;11.33;;;;;;;21.97;100.00;101386.91;7366052;19;20809;-36
2023/06/17 11:00:10;;;;;;;47.13;22.80;;;;;;;22.15;100.00;101379.94;7392362;19;20994;-33
2023/06/17 11:02:40;;;;;;;94.80;44.37;;;;;;;22.03;100.00;101383.41;7366099;19;21643;-36
2023/06/17 11:05:11;;;;;;;19.67;10.67;;;;;;;22.09;100.00;101390.41;7391580;19;20471;-35
2023/06/17 11:07:41;;;;;;;16.53;10.73;;;;;;;22.26;100.00;101391.38;7368249;19;21096;-35
2023/06/17 11:10:11;;;;;;;18.37;9.87;;;;;;;22.06;100.00;101393.94;7398458;19;20756;-38
2023/06/17 11:12:42;;;;;;;19.30;12.40;;;;;;;21.98;100.00;101398.25;7373083;19;20439;-35
2023/06/17 11:15:14;;;;;;;18.70;10.70;;;;;;;21.77;100.00;101399.94;7398584;19;21037;-39
2023/06/17 11:17:44;;;;;;;13.80;9.23;;;;;;;21.60;100.00;101410.31;7374094;19;20493;-34